createdAt,value
2017-12-14T00:00:45.811Z,975.44
2017-12-14T00:01:45.682Z,975.47
2017-12-14T00:02:45.720Z,975.56
2017-12-14T00:03:45.632Z,975.63
2017-12-14T00:04:45.628Z,975.69
2017-12-14T00:05:45.575Z,975.76
2017-12-14T00:06:45.643Z,975.79
2017-12-14T00:07:45.520Z,975.73
2017-12-14T00:08:45.553Z,975.82
2017-12-14T00:09:45.461Z,975.71
2017-12-14T00:10:45.462Z,975.80
2017-12-14T00:11:45.409Z,975.83
2017-12-14T00:12:45.475Z,975.80
2017-12-14T00:13:45.354Z,975.80
2017-12-14T00:14:45.383Z,975.85
2017-12-14T00:15:45.296Z,975.82
2017-12-14T00:16:45.293Z,975.82
2017-12-14T00:17:45.246Z,975.87
2017-12-14T00:18:45.218Z,975.83
2017-12-14T00:19:45.189Z,975.79
2017-12-14T00:20:45.214Z,975.92
2017-12-14T00:21:45.133Z,975.95
2017-12-14T00:22:45.128Z,975.85
2017-12-14T00:23:45.076Z,975.89
2017-12-14T00:24:45.139Z,975.95
2017-12-14T00:25:45.024Z,975.92
2017-12-14T00:26:45.048Z,975.83
2017-12-14T00:27:44.966Z,975.81
2017-12-14T00:28:44.958Z,975.78
2017-12-14T00:29:44.912Z,975.82
2017-12-14T00:30:44.970Z,975.82
2017-12-14T00:31:44.855Z,975.75
2017-12-14T00:32:44.880Z,975.77
2017-12-14T00:33:44.806Z,975.74
2017-12-14T00:34:44.791Z,975.80
2017-12-14T00:35:44.744Z,975.74
2017-12-14T00:36:44.801Z,975.67
2017-12-14T00:51:49.814Z,975.56
2017-12-14T00:52:49.753Z,975.58
2017-12-14T00:54:42.665Z,975.60
2017-12-14T00:55:42.603Z,975.54
2017-12-14T00:57:35.556Z,975.48
2017-12-14T00:58:35.453Z,975.46
2017-12-14T01:00:28.357Z,975.54
2017-12-14T01:01:28.364Z,975.54
2017-12-14T01:03:21.256Z,975.59
2017-12-14T01:04:21.149Z,975.59
2017-12-14T01:06:14.067Z,975.61
2017-12-14T01:07:14.001Z,975.68
2017-12-14T01:09:06.892Z,975.61
2017-12-14T01:10:06.853Z,975.60
2017-12-14T01:12:00.834Z,975.69
2017-12-14T01:12:59.706Z,975.61
2017-12-14T01:14:52.657Z,975.77
2017-12-14T01:15:52.557Z,975.85
2017-12-14T01:17:45.506Z,975.74
2017-12-14T01:18:45.407Z,975.90
2017-12-14T01:20:38.358Z,975.78
2017-12-14T01:21:38.251Z,975.73
2017-12-14T01:23:31.171Z,975.78
2017-12-14T01:24:31.107Z,975.82
2017-12-14T01:26:24.072Z,975.76
2017-12-14T01:27:23.956Z,975.77
2017-12-14T01:29:16.908Z,975.76
2017-12-14T01:30:16.807Z,975.74
2017-12-14T01:32:09.793Z,975.72
2017-12-14T01:33:09.658Z,975.78
2017-12-14T01:34:09.728Z,975.75
2017-12-14T01:35:09.602Z,975.72
2017-12-14T01:36:09.636Z,975.70
2017-12-14T01:37:09.548Z,975.68
2017-12-14T01:38:09.520Z,975.62
2017-12-14T01:39:09.490Z,975.61
2017-12-14T01:40:09.558Z,975.47
2017-12-14T01:41:09.438Z,975.57
2017-12-14T01:42:09.472Z,975.57
2017-12-14T01:43:09.375Z,975.52
2017-12-14T01:44:09.350Z,975.52
2017-12-14T01:45:09.329Z,975.44
2017-12-14T01:46:09.391Z,975.48
2017-12-14T01:47:09.270Z,975.53
2017-12-14T01:48:09.303Z,975.53
2017-12-14T01:49:09.225Z,975.47
2017-12-14T01:50:09.208Z,975.47
2017-12-14T01:51:09.159Z,975.56
2017-12-14T01:52:09.220Z,975.56
2017-12-14T01:53:09.128Z,975.58
2017-12-14T01:54:09.090Z,975.61
2017-12-14T01:55:09.141Z,975.64
2017-12-14T01:56:09.019Z,975.69
2017-12-14T01:57:09.051Z,975.70
2017-12-14T01:58:08.979Z,975.64
2017-12-14T01:59:08.960Z,975.63
2017-12-14T02:00:08.911Z,975.61
2017-12-14T02:01:08.970Z,975.59
2017-12-14T02:02:08.855Z,975.59
2017-12-14T02:03:08.884Z,975.63
2017-12-14T02:04:08.806Z,975.61
2017-12-14T02:05:08.792Z,975.62
2017-12-14T02:06:08.800Z,975.57
2017-12-14T02:07:08.720Z,975.57
2017-12-14T02:08:08.709Z,975.50
2017-12-14T02:09:08.663Z,975.46
2017-12-14T02:10:08.721Z,975.46
2017-12-14T02:11:08.606Z,975.46
2017-12-14T02:12:08.583Z,975.50
2017-12-14T02:13:08.633Z,975.48
2017-12-14T02:14:08.531Z,975.45
2017-12-14T02:15:08.546Z,975.44
2017-12-14T02:16:08.481Z,975.46
2017-12-14T02:17:08.558Z,975.43
2017-12-14T02:18:08.417Z,975.47
2017-12-14T02:19:08.468Z,975.44
2017-12-14T02:20:08.373Z,975.43
2017-12-14T02:21:08.336Z,975.45
2017-12-14T02:22:08.382Z,975.38
2017-12-14T02:23:08.285Z,975.40
2017-12-14T02:24:08.295Z,975.34
2017-12-14T02:25:08.223Z,975.33
2017-12-14T02:26:08.195Z,975.33
2017-12-14T02:27:08.171Z,975.31
2017-12-14T02:28:08.212Z,975.35
2017-12-14T02:29:08.117Z,975.32
2017-12-14T02:30:08.137Z,975.36
2017-12-14T02:31:08.060Z,975.32
2017-12-14T02:32:08.138Z,975.34
2017-12-14T02:33:08.006Z,975.36
2017-12-14T02:34:08.050Z,975.33
2017-12-14T02:35:07.948Z,975.32
2017-12-14T02:36:07.925Z,975.32
2017-12-14T02:37:07.963Z,975.29
2017-12-14T02:38:07.861Z,975.29
2017-12-14T02:39:07.883Z,975.34
2017-12-14T02:40:07.814Z,975.30
2017-12-14T02:41:07.780Z,975.32
2017-12-14T02:42:08.815Z,975.28
2017-12-14T02:43:07.751Z,975.29
2017-12-14T02:44:07.807Z,975.26
2017-12-14T02:45:07.672Z,975.24
2017-12-14T02:46:07.714Z,975.27
2017-12-14T02:47:07.615Z,975.23
2017-12-14T02:48:07.622Z,975.22
2017-12-14T02:49:09.573Z,975.17
2017-12-14T02:50:07.532Z,975.16
2017-12-14T02:51:07.544Z,975.14
2017-12-14T02:52:07.482Z,975.12
2017-12-14T02:53:07.556Z,975.07
2017-12-14T02:54:07.422Z,975.03
2017-12-14T02:55:07.400Z,975.03
2017-12-14T02:56:07.466Z,975.02
2017-12-14T02:57:07.343Z,974.98
2017-12-14T02:58:07.374Z,974.98
2017-12-14T02:59:07.286Z,974.97
2017-12-14T03:00:07.288Z,974.98
2017-12-14T03:01:07.235Z,974.95
2017-12-14T03:02:08.322Z,974.96
2017-12-14T03:03:07.176Z,974.89
2017-12-14T03:04:07.205Z,974.97
2017-12-14T03:05:07.127Z,974.99
2017-12-14T03:06:07.096Z,974.98
2017-12-14T03:07:07.071Z,974.99
2017-12-14T03:08:07.127Z,974.98
2017-12-14T03:09:07.020Z,974.97
2017-12-14T03:10:07.038Z,974.95
2017-12-14T03:11:06.959Z,974.93
2017-12-14T03:12:06.948Z,974.90
2017-12-14T03:13:06.910Z,974.90
2017-12-14T03:14:06.879Z,974.91
2017-12-14T03:15:06.852Z,974.86
2017-12-14T03:16:06.931Z,974.93
2017-12-14T03:17:06.795Z,974.92
2017-12-14T03:18:06.887Z,974.99
2017-12-14T03:19:06.745Z,974.92
2017-12-14T03:20:06.715Z,974.96
2017-12-14T03:21:06.803Z,974.93
2017-12-14T03:22:06.664Z,974.94
2017-12-14T03:23:06.715Z,974.95
2017-12-14T03:24:06.607Z,974.89
2017-12-14T03:25:06.619Z,974.96
2017-12-14T03:26:06.554Z,974.98
2017-12-14T03:27:06.632Z,975.04
2017-12-14T03:28:06.497Z,975.07
2017-12-14T03:29:06.542Z,975.07
2017-12-14T03:30:06.445Z,975.24
2017-12-14T03:31:06.452Z,975.14
2017-12-14T03:32:07.482Z,975.11
2017-12-14T03:33:06.358Z,975.16
2017-12-14T03:34:06.368Z,975.23
2017-12-14T03:35:06.303Z,975.19
2017-12-14T03:36:06.381Z,975.16
2017-12-14T03:37:06.248Z,975.16
2017-12-14T03:38:06.220Z,975.11
2017-12-14T03:39:06.189Z,975.16
2017-12-14T03:40:06.199Z,975.27
2017-12-14T03:41:06.134Z,975.20
2017-12-14T03:42:07.131Z,975.16
2017-12-14T03:43:06.079Z,975.16
2017-12-14T03:44:06.121Z,975.26
2017-12-14T03:45:06.028Z,975.20
2017-12-14T03:46:06.034Z,975.26
2017-12-14T03:47:05.973Z,975.27
2017-12-14T03:48:06.055Z,975.27
2017-12-14T03:49:05.914Z,975.24
2017-12-14T03:50:05.954Z,975.16
2017-12-14T03:51:05.858Z,975.13
2017-12-14T03:52:05.863Z,975.12
2017-12-14T03:53:05.796Z,975.12
2017-12-14T03:54:05.877Z,975.23
2017-12-14T03:55:05.781Z,975.11
2017-12-14T03:56:05.717Z,975.10
2017-12-14T03:57:05.797Z,975.14
2017-12-14T03:58:05.657Z,975.17
2017-12-14T03:59:05.702Z,975.12
2017-12-14T04:00:05.605Z,975.18
2017-12-14T04:01:05.574Z,975.17
2017-12-14T04:02:05.619Z,975.20
2017-12-14T04:03:05.517Z,975.13
2017-12-14T04:04:05.528Z,975.20
2017-12-14T04:05:05.462Z,975.15
2017-12-14T04:06:05.430Z,975.12
2017-12-14T04:07:05.406Z,975.12
2017-12-14T04:08:05.453Z,975.13
2017-12-14T04:09:05.349Z,975.13
2017-12-14T04:10:05.360Z,975.21
2017-12-14T04:11:05.337Z,975.19
2017-12-14T04:12:05.374Z,975.12
2017-12-14T04:13:05.251Z,975.16
2017-12-14T04:14:05.285Z,975.16
2017-12-14T04:15:05.177Z,975.20
2017-12-14T04:16:05.191Z,975.31
2017-12-14T04:17:05.128Z,975.20
2017-12-14T04:18:05.094Z,975.21
2017-12-14T04:19:05.067Z,975.25
2017-12-14T04:20:05.116Z,975.33
2017-12-14T04:21:05.012Z,975.23
2017-12-14T04:22:05.024Z,975.22
2017-12-14T04:23:04.956Z,975.46
2017-12-14T04:24:04.920Z,975.25
2017-12-14T04:25:04.895Z,975.38
2017-12-14T04:26:04.946Z,975.43
2017-12-14T04:27:04.837Z,975.30
2017-12-14T04:28:04.857Z,975.31
2017-12-14T04:29:04.781Z,975.46
2017-12-14T04:30:04.747Z,975.24
2017-12-14T04:31:04.772Z,975.38
2017-12-14T04:32:04.693Z,975.25
2017-12-14T04:33:04.682Z,975.33
2017-12-14T04:34:04.633Z,975.40
2017-12-14T04:35:04.695Z,975.59
2017-12-14T04:36:04.584Z,975.42
2017-12-14T04:37:04.607Z,975.38
2017-12-14T04:38:04.524Z,975.39
2017-12-14T04:39:04.520Z,975.48
2017-12-14T04:40:04.477Z,975.50
2017-12-14T04:41:04.531Z,975.40
2017-12-14T04:42:04.407Z,975.49
2017-12-14T04:43:04.437Z,975.45
2017-12-14T04:44:04.354Z,975.41
2017-12-14T04:45:04.347Z,975.53
2017-12-14T04:46:04.298Z,975.50
2017-12-14T04:47:04.359Z,975.51
2017-12-14T04:48:04.241Z,975.63
2017-12-14T04:49:04.270Z,975.54
2017-12-14T04:50:04.184Z,975.47
2017-12-14T04:51:04.179Z,975.51
2017-12-14T04:52:04.128Z,975.62
2017-12-14T04:53:04.094Z,975.56
2017-12-14T04:54:04.070Z,975.75
2017-12-14T04:55:04.101Z,975.61
2017-12-14T04:56:04.017Z,975.68
2017-12-14T04:57:04.013Z,975.62
2017-12-14T04:58:03.962Z,975.62
2017-12-14T04:59:03.928Z,975.73
2017-12-14T05:00:03.901Z,975.58
2017-12-14T05:01:03.937Z,975.69
2017-12-14T05:02:03.841Z,975.59
2017-12-14T05:03:03.844Z,975.58
2017-12-14T05:04:03.788Z,975.82
2017-12-14T05:05:03.757Z,975.63
2017-12-14T05:06:03.757Z,975.67
2017-12-14T05:07:03.702Z,975.62
2017-12-14T05:08:03.773Z,975.62
2017-12-14T05:09:03.646Z,975.67
2017-12-14T05:10:03.682Z,975.81
2017-12-14T05:11:03.589Z,975.76
2017-12-14T05:12:03.596Z,975.70
2017-12-14T05:13:03.530Z,975.78
2017-12-14T05:14:03.599Z,975.78
2017-12-14T05:15:03.479Z,975.68
2017-12-14T05:16:03.445Z,975.81
2017-12-14T05:17:03.420Z,975.87
2017-12-14T05:18:03.424Z,975.96
2017-12-14T05:19:03.359Z,975.75
2017-12-14T05:20:03.434Z,975.93
2017-12-14T05:21:03.309Z,975.85
2017-12-14T05:22:03.276Z,975.95
2017-12-14T05:23:03.245Z,975.94
2017-12-14T05:24:03.254Z,976.16
2017-12-14T05:25:03.193Z,975.99
2017-12-14T05:26:03.268Z,976.00
2017-12-14T05:27:03.129Z,975.98
2017-12-14T05:28:03.111Z,975.89
2017-12-14T05:29:03.185Z,976.15
2017-12-14T05:30:03.050Z,975.99
2017-12-14T05:31:03.097Z,976.02
2017-12-14T05:32:02.992Z,976.02
2017-12-14T05:33:02.971Z,976.17
2017-12-14T05:34:02.931Z,976.22
2017-12-14T05:35:02.943Z,976.14
2017-12-14T05:36:02.877Z,976.36
2017-12-14T05:37:02.993Z,976.16
2017-12-14T05:38:02.819Z,976.10
2017-12-14T05:39:02.937Z,976.26
2017-12-14T05:40:02.777Z,976.13
2017-12-14T05:41:02.847Z,976.63
2017-12-14T05:42:02.714Z,976.26
2017-12-14T05:43:02.859Z,976.66
2017-12-14T05:44:02.657Z,976.52
2017-12-14T05:45:02.628Z,976.45
2017-12-14T05:46:02.596Z,976.43
2017-12-14T05:47:02.678Z,976.28
2017-12-14T05:48:02.540Z,976.33
2017-12-14T05:49:02.587Z,976.65
2017-12-14T05:50:02.484Z,976.44
2017-12-14T05:51:02.449Z,976.42
2017-12-14T05:52:03.532Z,976.67
2017-12-14T05:53:02.399Z,976.85
2017-12-14T05:54:02.520Z,976.57
2017-12-14T05:55:02.339Z,976.68
2017-12-14T05:56:02.430Z,976.67
2017-12-14T05:57:02.433Z,976.69
2017-12-14T05:58:02.254Z,976.75
2017-12-14T05:59:02.342Z,976.74
2017-12-14T06:00:02.199Z,976.66
2017-12-14T06:01:02.256Z,977.10
2017-12-14T06:02:02.145Z,976.72
2017-12-14T06:03:02.112Z,977.11
2017-12-14T06:04:02.174Z,977.17
2017-12-14T06:05:02.055Z,977.01
2017-12-14T06:06:02.081Z,977.15
2017-12-14T06:07:02.003Z,976.93
2017-12-14T06:08:02.093Z,977.02
2017-12-14T06:09:01.947Z,977.21
2017-12-14T06:10:02.008Z,977.49
2017-12-14T06:11:01.885Z,977.11
2017-12-14T06:12:01.914Z,977.30
2017-12-14T06:13:01.835Z,977.25
2017-12-14T06:14:01.825Z,977.39
2017-12-14T06:15:01.769Z,977.39
2017-12-14T06:16:01.833Z,977.33
2017-12-14T06:17:01.720Z,977.35
2017-12-14T06:18:01.743Z,977.40
2017-12-14T06:19:01.654Z,977.45
2017-12-14T06:20:01.652Z,977.42
2017-12-14T06:21:01.604Z,977.42
2017-12-14T06:22:01.664Z,977.63
2017-12-14T06:23:01.542Z,977.87
2017-12-14T06:24:01.551Z,977.62
2017-12-14T06:25:01.495Z,977.68
2017-12-14T06:26:01.485Z,977.81
2017-12-14T06:27:01.429Z,977.71
2017-12-14T06:28:01.495Z,977.85
2017-12-14T06:29:01.376Z,978.03
2017-12-14T06:30:01.405Z,977.94
2017-12-14T06:31:01.317Z,977.99
2017-12-14T06:32:01.299Z,978.13
2017-12-14T06:33:01.261Z,978.07
2017-12-14T06:34:01.328Z,978.02
2017-12-14T06:35:01.220Z,977.95
2017-12-14T06:36:01.239Z,978.05
2017-12-14T06:37:01.142Z,978.00
2017-12-14T06:38:01.120Z,978.45
2017-12-14T06:39:01.090Z,978.11
2017-12-14T06:40:01.165Z,978.11
2017-12-14T06:41:01.034Z,978.21
2017-12-14T06:42:01.070Z,978.22
2017-12-14T06:43:00.979Z,978.21
2017-12-14T06:44:00.980Z,978.08
2017-12-14T06:45:00.923Z,978.22
2017-12-14T06:46:00.992Z,978.37
2017-12-14T06:47:00.857Z,978.58
2017-12-14T06:48:00.906Z,978.38
2017-12-14T06:49:00.807Z,978.45
2017-12-14T06:50:00.813Z,978.46
2017-12-14T06:51:00.747Z,978.41
2017-12-14T06:52:00.824Z,978.61
2017-12-14T06:53:00.696Z,978.57
2017-12-14T06:54:00.735Z,978.60
2017-12-14T06:55:00.638Z,978.65
2017-12-14T06:56:00.649Z,978.81
2017-12-14T06:57:00.588Z,978.71
2017-12-14T06:58:00.655Z,978.76
2017-12-14T06:59:00.524Z,978.66
2017-12-14T07:00:00.571Z,978.84
2017-12-14T07:01:00.462Z,978.83
2017-12-14T07:02:00.478Z,978.71
2017-12-14T07:03:00.411Z,978.86
2017-12-14T07:04:00.488Z,978.83
2017-12-14T07:05:00.353Z,978.81
2017-12-14T07:06:00.343Z,978.89
2017-12-14T07:07:00.295Z,978.99
2017-12-14T07:08:00.411Z,979.08
2017-12-14T07:09:00.236Z,979.04
2017-12-14T07:10:00.320Z,979.11
2017-12-14T07:11:00.181Z,979.13
2017-12-14T07:12:01.255Z,979.09
2017-12-14T07:13:00.130Z,979.17
2017-12-14T07:14:00.140Z,979.21
2017-12-14T07:15:00.066Z,979.11
2017-12-14T07:16:00.152Z,979.04
2017-12-14T07:17:00.015Z,978.99
2017-12-14T07:18:00.068Z,979.14
2017-12-14T07:18:59.962Z,979.14
2017-12-14T07:19:59.976Z,978.97
2017-12-14T07:20:59.903Z,979.25
2017-12-14T07:21:59.990Z,979.13
2017-12-14T07:22:59.845Z,979.10
2017-12-14T07:23:59.913Z,979.16
2017-12-14T07:24:59.784Z,979.32
2017-12-14T07:25:59.805Z,979.40
2017-12-14T07:26:59.737Z,979.17
2017-12-14T07:27:59.725Z,979.26
2017-12-14T07:28:59.688Z,979.40
2017-12-14T07:29:59.728Z,979.48
2017-12-14T07:30:59.622Z,979.23
2017-12-14T07:31:59.638Z,979.35
2017-12-14T07:32:59.553Z,979.45
2017-12-14T07:33:59.563Z,979.57
2017-12-14T07:34:59.513Z,979.48
2017-12-14T07:35:59.565Z,979.41
2017-12-14T07:36:59.439Z,979.77
2017-12-14T07:37:59.473Z,979.51
2017-12-14T07:38:59.378Z,979.52
2017-12-14T07:39:59.379Z,979.48
2017-12-14T07:40:59.332Z,979.52
2017-12-14T07:42:00.320Z,979.50
2017-12-14T07:42:59.267Z,979.57
2017-12-14T07:43:59.249Z,979.45
2017-12-14T07:44:59.218Z,979.46
2017-12-14T07:45:59.236Z,979.54
2017-12-14T07:46:59.184Z,979.61
2017-12-14T07:47:59.226Z,979.61
2017-12-14T07:48:59.108Z,979.58
2017-12-14T07:49:59.138Z,979.68
2017-12-14T07:50:59.042Z,979.61
2017-12-14T07:51:59.057Z,979.65
2017-12-14T07:52:58.995Z,979.57
2017-12-14T07:53:58.966Z,979.59
2017-12-14T07:54:58.935Z,979.49
2017-12-14T07:55:58.975Z,979.66
2017-12-14T07:56:58.882Z,979.57
2017-12-14T07:57:58.875Z,979.44
2017-12-14T07:58:58.822Z,979.56
2017-12-14T07:59:58.797Z,979.57
2017-12-14T08:00:58.759Z,979.59
2017-12-14T08:01:59.826Z,979.53
2017-12-14T08:02:58.714Z,979.44
2017-12-14T08:03:58.719Z,979.63
2017-12-14T08:04:58.647Z,979.51
2017-12-14T08:05:58.623Z,979.61
2017-12-14T08:06:58.592Z,979.59
2017-12-14T08:07:58.633Z,979.57
2017-12-14T08:08:58.555Z,979.55
2017-12-14T08:09:58.550Z,979.47
2017-12-14T08:10:58.480Z,979.43
2017-12-14T08:11:58.553Z,979.66
2017-12-14T08:12:58.434Z,979.49
2017-12-14T08:13:58.463Z,979.61
2017-12-14T08:14:58.370Z,979.48
2017-12-14T08:15:58.374Z,979.66
2017-12-14T08:16:58.324Z,979.59
2017-12-14T08:17:58.386Z,979.46
2017-12-14T08:18:58.256Z,979.57
2017-12-14T08:19:58.300Z,979.61
2017-12-14T08:20:58.201Z,979.59
2017-12-14T08:21:59.232Z,979.51
2017-12-14T08:22:58.159Z,979.60
2017-12-14T08:23:58.221Z,979.54
2017-12-14T08:24:58.098Z,979.64
2017-12-14T08:25:58.096Z,979.52
2017-12-14T08:26:58.131Z,979.60
2017-12-14T08:27:58.002Z,979.53
2017-12-14T08:28:58.041Z,979.58
2017-12-14T08:29:58.032Z,979.50
2017-12-14T08:30:58.043Z,979.48
2017-12-14T08:31:57.900Z,979.42
2017-12-14T08:32:57.965Z,979.50
2017-12-14T08:33:57.832Z,979.62
2017-12-14T08:34:57.874Z,979.48
2017-12-14T08:35:57.782Z,979.53
2017-12-14T08:36:57.785Z,979.47
2017-12-14T08:37:57.717Z,979.52
2017-12-14T08:38:57.800Z,979.42
2017-12-14T08:39:57.661Z,979.45
2017-12-14T08:40:57.633Z,979.49
2017-12-14T08:41:58.639Z,979.48
2017-12-14T08:42:57.583Z,979.56
2017-12-14T08:43:57.620Z,979.43
2017-12-14T08:44:57.525Z,979.49
2017-12-14T08:45:57.500Z,979.47
2017-12-14T08:46:57.467Z,979.60
2017-12-14T08:47:57.547Z,979.62
2017-12-14T08:48:57.409Z,979.54
2017-12-14T08:49:57.456Z,979.74
2017-12-14T08:50:57.352Z,979.59
2017-12-14T08:51:57.331Z,979.64
2017-12-14T08:52:57.393Z,979.68
2017-12-14T08:53:57.273Z,979.67
2017-12-14T08:54:57.292Z,979.65
2017-12-14T08:55:57.225Z,979.62
2017-12-14T08:56:57.300Z,979.67
2017-12-14T08:57:57.212Z,979.62
2017-12-14T08:58:57.211Z,979.78
2017-12-14T08:59:57.106Z,979.82
2017-12-14T09:00:57.077Z,979.65
2017-12-14T09:01:57.046Z,979.69
2017-12-14T09:02:57.130Z,979.73
2017-12-14T09:03:56.988Z,979.72
2017-12-14T09:04:56.972Z,979.84
2017-12-14T09:05:56.930Z,979.76
2017-12-14T09:06:56.954Z,979.89
2017-12-14T09:07:56.877Z,979.87
2017-12-14T09:08:56.958Z,979.96
2017-12-14T09:09:56.830Z,979.79
2017-12-14T09:10:56.874Z,979.94
2017-12-14T09:19:35.339Z,979.88
2017-12-14T09:20:35.269Z,979.95
2017-12-14T09:22:28.226Z,979.90
2017-12-14T09:23:28.117Z,979.92
2017-12-14T09:25:21.018Z,979.80
2017-12-14T09:26:20.959Z,979.85
2017-12-14T09:28:13.795Z,979.91
2017-12-14T09:29:13.770Z,979.94
2017-12-14T09:31:06.713Z,979.94
2017-12-14T09:32:06.663Z,980.05
2017-12-14T09:33:59.486Z,979.92
2017-12-14T09:34:59.456Z,980.04
2017-12-14T09:36:52.428Z,980.00
2017-12-14T09:37:52.363Z,980.06
2017-12-14T09:39:45.260Z,979.95
2017-12-14T09:40:45.277Z,979.92
2017-12-14T09:42:38.124Z,979.98
2017-12-14T09:43:38.131Z,979.91
2017-12-14T09:45:30.951Z,980.04
2017-12-14T09:46:30.909Z,979.98
2017-12-14T09:48:23.834Z,979.90
2017-12-14T09:49:23.831Z,979.99
2017-12-14T09:51:16.718Z,979.92
2017-12-14T09:52:16.625Z,980.03
2017-12-14T09:54:09.526Z,979.93
2017-12-14T09:55:09.470Z,979.89
2017-12-14T09:57:02.358Z,979.96
2017-12-14T09:58:02.359Z,979.95
2017-12-14T09:59:55.223Z,979.90
2017-12-14T10:00:55.233Z,980.03
2017-12-14T10:02:48.061Z,979.91
2017-12-14T10:03:47.997Z,979.74
2017-12-14T10:05:40.841Z,979.82
2017-12-14T10:06:40.779Z,979.94
2017-12-14T10:08:33.789Z,979.72
2017-12-14T10:09:33.751Z,979.84
2017-12-14T10:11:26.620Z,979.80
2017-12-14T10:12:26.565Z,979.68
2017-12-14T10:14:19.455Z,979.79
2017-12-14T10:15:19.418Z,979.74
2017-12-14T10:17:12.334Z,979.75
2017-12-14T10:18:12.268Z,979.65
2017-12-14T10:20:05.150Z,979.78
2017-12-14T10:21:05.117Z,979.58
2017-12-14T10:22:58.005Z,979.66
2017-12-14T10:23:57.946Z,979.65
2017-12-14T10:25:51.019Z,979.60
2017-12-14T10:26:50.927Z,979.67
2017-12-14T10:28:43.830Z,979.71
2017-12-14T10:29:43.838Z,979.75
2017-12-14T10:31:36.724Z,979.72
2017-12-14T10:32:36.618Z,979.64
2017-12-14T10:34:29.527Z,979.69
2017-12-14T10:35:29.475Z,979.69
2017-12-14T10:37:22.425Z,979.58
2017-12-14T10:38:22.328Z,979.64
2017-12-14T10:40:15.238Z,979.75
2017-12-14T10:41:15.173Z,979.71
2017-12-14T10:43:08.136Z,979.79
2017-12-14T10:44:08.027Z,979.78
2017-12-14T10:46:00.935Z,979.78
2017-12-14T10:47:00.884Z,979.77
2017-12-14T10:48:53.834Z,979.82
2017-12-14T10:49:53.733Z,979.75
2017-12-14T10:51:46.592Z,979.84
2017-12-14T10:52:46.641Z,979.76
2017-12-14T10:54:39.456Z,979.92
2017-12-14T10:55:39.431Z,979.90
2017-12-14T10:57:32.344Z,979.87
2017-12-14T10:58:32.277Z,979.89
2017-12-14T11:00:26.274Z,979.83
2017-12-14T11:01:25.127Z,979.92
2017-12-14T11:03:17.996Z,979.85
2017-12-14T11:04:17.936Z,979.89
2017-12-14T11:06:10.931Z,979.88
2017-12-14T11:07:10.827Z,979.81
2017-12-14T11:09:03.783Z,979.82
2017-12-14T11:10:03.686Z,979.82
2017-12-14T11:11:57.549Z,979.75
2017-12-14T11:12:57.483Z,979.80
2017-12-14T11:14:50.407Z,979.51
2017-12-14T11:15:50.301Z,979.70
2017-12-14T11:17:43.139Z,979.68
2017-12-14T11:18:43.111Z,979.52
2017-12-14T11:20:36.104Z,979.94
2017-12-14T11:21:36.005Z,979.75
2017-12-14T11:23:28.954Z,979.70
2017-12-14T11:24:28.860Z,979.66
2017-12-14T11:26:22.802Z,979.68
2017-12-14T11:27:22.731Z,979.61
2017-12-14T11:29:15.613Z,979.58
2017-12-14T11:30:15.579Z,979.76
2017-12-14T11:32:08.536Z,979.59
2017-12-14T11:33:08.411Z,979.61
2017-12-14T11:35:01.235Z,979.56
2017-12-14T11:36:01.199Z,979.68
2017-12-14T11:37:54.123Z,979.56
2017-12-14T11:38:54.107Z,980.03
2017-12-14T11:40:46.915Z,979.56
2017-12-14T11:41:46.877Z,979.62
2017-12-14T11:43:39.831Z,979.73
2017-12-14T11:44:39.731Z,979.73
2017-12-14T11:46:33.131Z,979.71
2017-12-14T11:47:33.091Z,979.73
2017-12-14T11:49:26.004Z,979.75
2017-12-14T11:50:25.945Z,979.76
2017-12-14T11:52:18.827Z,979.67
2017-12-14T11:53:18.796Z,979.62
2017-12-14T11:55:11.749Z,979.69
2017-12-14T11:56:11.651Z,979.59
2017-12-14T11:58:04.533Z,979.71
2017-12-14T11:59:04.561Z,979.70
2017-12-14T12:00:57.400Z,979.59
2017-12-14T12:01:58.434Z,979.50
2017-12-14T12:03:50.295Z,979.71
2017-12-14T12:04:50.256Z,979.86
2017-12-14T12:06:44.174Z,979.68
2017-12-14T12:07:44.068Z,979.74
2017-12-14T12:09:36.962Z,979.70
2017-12-14T12:10:36.921Z,979.67
2017-12-14T12:12:29.873Z,979.64
2017-12-14T12:13:29.775Z,979.77
2017-12-14T12:15:22.651Z,979.80
2017-12-14T12:16:22.738Z,979.74
2017-12-14T12:18:15.579Z,979.66
2017-12-14T12:19:15.477Z,979.63
2017-12-14T12:21:08.358Z,979.89
2017-12-14T12:22:08.324Z,979.63
2017-12-14T12:24:01.276Z,979.75
2017-12-14T12:25:01.170Z,979.58
2017-12-14T12:26:54.061Z,979.73
2017-12-14T12:27:54.020Z,979.80
2017-12-14T12:29:46.975Z,979.82
2017-12-14T12:30:46.873Z,979.75
2017-12-14T12:32:39.824Z,979.61
2017-12-14T12:33:39.726Z,979.62
2017-12-14T12:35:33.700Z,979.74
2017-12-14T12:36:32.579Z,979.71
2017-12-14T12:38:25.462Z,979.60
2017-12-14T12:39:25.423Z,979.73
2017-12-14T12:41:18.372Z,979.80
2017-12-14T12:42:18.281Z,979.76
2017-12-14T12:44:11.161Z,979.71
2017-12-14T12:45:11.192Z,979.71
2017-12-14T12:47:04.091Z,979.70
2017-12-14T12:48:03.979Z,979.92
2017-12-14T12:49:56.860Z,979.72
2017-12-14T12:50:56.881Z,979.91
2017-12-14T12:52:49.785Z,979.89
2017-12-14T12:53:49.704Z,979.75
2017-12-14T12:55:42.564Z,979.74
2017-12-14T12:56:42.592Z,979.93
2017-12-14T12:58:35.445Z,979.61
2017-12-14T12:59:35.446Z,979.72
2017-12-14T13:01:28.538Z,979.72
2017-12-14T13:02:28.295Z,979.68
2017-12-14T13:04:22.678Z,979.64
2017-12-14T13:05:22.689Z,979.71
2017-12-14T13:07:15.642Z,979.67
2017-12-14T13:08:15.463Z,979.68
2017-12-14T13:10:08.417Z,979.55
2017-12-14T13:11:08.324Z,979.63
2017-12-14T13:13:01.205Z,979.55
2017-12-14T13:14:01.177Z,979.56
2017-12-14T13:15:54.121Z,979.55
2017-12-14T13:16:54.017Z,979.48
2017-12-14T13:18:46.907Z,979.60
2017-12-14T13:19:46.884Z,979.49
2017-12-14T13:21:39.820Z,979.51
2017-12-14T13:22:39.719Z,979.53
2017-12-14T13:24:32.606Z,979.47
2017-12-14T13:25:32.578Z,979.45
2017-12-14T13:27:25.519Z,979.50
2017-12-14T13:28:25.428Z,979.51
2017-12-14T13:30:18.305Z,979.57
2017-12-14T13:31:18.363Z,979.42
2017-12-14T13:33:11.219Z,979.48
2017-12-14T13:34:11.120Z,979.46
2017-12-14T13:36:04.009Z,979.50
2017-12-14T13:37:03.972Z,979.41
2017-12-14T13:38:56.939Z,979.42
2017-12-14T13:39:56.830Z,979.48
2017-12-14T13:41:49.706Z,979.38
2017-12-14T13:42:49.736Z,979.44
2017-12-14T13:44:42.584Z,979.37
2017-12-14T13:45:42.585Z,979.37
2017-12-14T13:47:35.411Z,979.38
2017-12-14T13:48:35.436Z,979.36
2017-12-14T13:50:28.326Z,979.24
2017-12-14T13:51:28.233Z,979.44
2017-12-14T13:53:21.176Z,979.33
2017-12-14T13:54:21.074Z,979.46
2017-12-14T13:56:14.005Z,979.44
2017-12-14T13:57:13.991Z,979.44
2017-12-14T13:59:06.822Z,979.45
2017-12-14T14:00:06.844Z,979.42
2017-12-14T14:01:59.757Z,979.55
2017-12-14T14:02:59.629Z,979.58
2017-12-14T14:04:52.511Z,979.40
2017-12-14T14:05:52.485Z,979.45
2017-12-14T14:07:45.438Z,979.40
2017-12-14T14:08:45.336Z,979.47
2017-12-14T14:10:38.266Z,979.53
2017-12-14T14:11:38.190Z,979.49
2017-12-14T14:13:31.098Z,979.44
2017-12-14T14:14:31.030Z,979.50
2017-12-14T14:16:23.920Z,979.42
2017-12-14T14:17:23.940Z,979.58
2017-12-14T14:19:16.865Z,979.52
2017-12-14T14:20:16.731Z,979.45
2017-12-14T14:22:09.620Z,979.55
2017-12-14T14:23:09.590Z,979.53
2017-12-14T14:25:02.530Z,979.38
2017-12-14T14:26:02.442Z,979.35
2017-12-14T14:27:55.835Z,979.38
2017-12-14T14:28:55.802Z,979.45
2017-12-14T14:30:48.713Z,979.38
2017-12-14T14:31:48.708Z,979.36
2017-12-14T14:33:41.525Z,979.42
2017-12-14T14:34:41.507Z,979.35
2017-12-14T14:36:34.404Z,979.37
2017-12-14T14:37:34.350Z,979.40
2017-12-14T14:39:27.229Z,979.35
2017-12-14T14:40:27.193Z,979.31